sensor_id;sensor_type;location;lat;lon;timestamp;P1;durP1;ratioP1;P2;durP2;ratioP2
21038;SDS011;10678;51.002;4.786;2023-05-10T00:01:47;22.83;;;9.63;;
21038;SDS011;10678;51.002;4.786;2023-05-10T00:04:13;16.90;;;10.43;;
21038;SDS011;10678;51.002;4.786;2023-05-10T00:06:38;20.33;;;9.75;;
21038;SDS011;10678;51.002;4.786;2023-05-10T00:09:04;23.92;;;10.82;;
21038;SDS011;10678;51.002;4.786;2023-05-10T00:11:30;26.73;;;11.60;;
21038;SDS011;10678;51.002;4.786;2023-05-10T00:13:55;20.38;;;10.75;;
21038;SDS011;10678;51.002;4.786;2023-05-10T00:16:21;19.58;;;10.93;;
21038;SDS011;10678;51.002;4.786;2023-05-10T00:18:47;22.23;;;10.95;;
21038;SDS011;10678;51.002;4.786;2023-05-10T00:21:12;19.95;;;10.52;;
21038;SDS011;10678;51.002;4.786;2023-05-10T00:23:38;20.80;;;10.45;;
21038;SDS011;10678;51.002;4.786;2023-05-10T00:26:04;19.60;;;9.55;;
21038;SDS011;10678;51.002;4.786;2023-05-10T00:28:29;15.73;;;9.32;;
21038;SDS011;10678;51.002;4.786;2023-05-10T00:30:55;20.40;;;9.73;;
21038;SDS011;10678;51.002;4.786;2023-05-10T00:33:21;19.27;;;8.82;;
21038;SDS011;10678;51.002;4.786;2023-05-10T00:35:46;23.02;;;9.52;;
21038;SDS011;10678;51.002;4.786;2023-05-10T00:38:12;15.77;;;8.80;;
21038;SDS011;10678;51.002;4.786;2023-05-10T00:40:37;13.05;;;8.52;;
21038;SDS011;10678;51.002;4.786;2023-05-10T00:43:03;18.83;;;8.23;;
21038;SDS011;10678;51.002;4.786;2023-05-10T00:45:30;15.20;;;8.10;;
21038;SDS011;10678;51.002;4.786;2023-05-10T00:47:57;20.70;;;8.70;;
21038;SDS011;10678;51.002;4.786;2023-05-10T00:50:24;17.90;;;7.90;;
21038;SDS011;10678;51.002;4.786;2023-05-10T00:52:51;22.20;;;9.32;;
21038;SDS011;10678;51.002;4.786;2023-05-10T00:55:17;21.95;;;8.90;;
21038;SDS011;10678;51.002;4.786;2023-05-10T00:57:43;15.90;;;8.18;;
21038;SDS011;10678;51.002;4.786;2023-05-10T01:00:09;16.35;;;7.78;;
21038;SDS011;10678;51.002;4.786;2023-05-10T01:02:36;20.00;;;8.02;;
21038;SDS011;10678;51.002;4.786;2023-05-10T01:05:02;14.73;;;8.05;;
21038;SDS011;10678;51.002;4.786;2023-05-10T01:07:28;22.80;;;8.40;;
21038;SDS011;10678;51.002;4.786;2023-05-10T01:09:54;20.48;;;8.88;;
21038;SDS011;10678;51.002;4.786;2023-05-10T01:12:20;18.33;;;8.02;;
21038;SDS011;10678;51.002;4.786;2023-05-10T01:14:46;23.83;;;8.52;;
21038;SDS011;10678;51.002;4.786;2023-05-10T01:17:13;20.27;;;8.73;;
21038;SDS011;10678;51.002;4.786;2023-05-10T01:19:39;24.05;;;9.13;;
21038;SDS011;10678;51.002;4.786;2023-05-10T01:22:08;22.10;;;8.80;;
21038;SDS011;10678;51.002;4.786;2023-05-10T01:33:10;29.15;;;8.75;;
21038;SDS011;10678;51.002;4.786;2023-05-10T01:43:57;21.15;;;9.38;;
21038;SDS011;10678;51.002;4.786;2023-05-10T01:46:31;16.23;;;8.52;;
21038;SDS011;10678;51.002;4.786;2023-05-10T01:49:02;21.92;;;8.55;;
21038;SDS011;10678;51.002;4.786;2023-05-10T01:51:39;19.58;;;8.63;;
21038;SDS011;10678;51.002;4.786;2023-05-10T01:54:16;24.25;;;9.52;;
21038;SDS011;10678;51.002;4.786;2023-05-10T01:56:44;18.23;;;8.98;;
21038;SDS011;10678;51.002;4.786;2023-05-10T01:59:17;24.20;;;9.85;;
21038;SDS011;10678;51.002;4.786;2023-05-10T02:01:44;27.95;;;9.50;;
21038;SDS011;10678;51.002;4.786;2023-05-10T02:04:11;29.23;;;10.15;;
21038;SDS011;10678;51.002;4.786;2023-05-10T02:06:40;23.15;;;9.55;;
21038;SDS011;10678;51.002;4.786;2023-05-10T02:09:07;26.65;;;9.80;;
21038;SDS011;10678;51.002;4.786;2023-05-10T02:11:36;19.30;;;8.98;;
21038;SDS011;10678;51.002;4.786;2023-05-10T02:14:03;20.30;;;9.43;;
21038;SDS011;10678;51.002;4.786;2023-05-10T02:16:32;20.38;;;9.98;;
21038;SDS011;10678;51.002;4.786;2023-05-10T02:19:00;19.25;;;10.48;;
21038;SDS011;10678;51.002;4.786;2023-05-10T02:21:28;24.30;;;9.65;;
21038;SDS011;10678;51.002;4.786;2023-05-10T02:23:55;17.17;;;9.32;;
21038;SDS011;10678;51.002;4.786;2023-05-10T02:26:23;24.63;;;10.50;;
21038;SDS011;10678;51.002;4.786;2023-05-10T02:28:50;20.63;;;9.52;;
21038;SDS011;10678;51.002;4.786;2023-05-10T02:31:18;31.05;;;10.57;;
21038;SDS011;10678;51.002;4.786;2023-05-10T02:33:45;23.33;;;10.50;;
21038;SDS011;10678;51.002;4.786;2023-05-10T02:36:12;19.63;;;10.07;;
21038;SDS011;10678;51.002;4.786;2023-05-10T02:38:38;24.27;;;9.60;;
21038;SDS011;10678;51.002;4.786;2023-05-10T02:41:05;22.13;;;10.43;;
21038;SDS011;10678;51.002;4.786;2023-05-10T02:43:35;23.10;;;11.18;;
21038;SDS011;10678;51.002;4.786;2023-05-10T02:46:02;24.05;;;11.82;;
21038;SDS011;10678;51.002;4.786;2023-05-10T02:48:28;24.95;;;11.30;;
21038;SDS011;10678;51.002;4.786;2023-05-10T02:50:55;24.50;;;11.05;;
21038;SDS011;10678;51.002;4.786;2023-05-10T02:53:28;24.52;;;11.85;;
21038;SDS011;10678;51.002;4.786;2023-05-10T02:56:01;23.58;;;11.05;;
21038;SDS011;10678;51.002;4.786;2023-05-10T02:58:32;29.60;;;13.23;;
21038;SDS011;10678;51.002;4.786;2023-05-10T03:00:59;26.75;;;12.63;;
21038;SDS011;10678;51.002;4.786;2023-05-10T03:03:25;28.83;;;12.68;;
21038;SDS011;10678;51.002;4.786;2023-05-10T03:05:51;27.63;;;12.35;;
21038;SDS011;10678;51.002;4.786;2023-05-10T03:08:18;20.45;;;12.18;;
21038;SDS011;10678;51.002;4.786;2023-05-10T03:10:50;26.15;;;12.70;;
21038;SDS011;10678;51.002;4.786;2023-05-10T03:13:53;21.98;;;12.43;;
21038;SDS011;10678;51.002;4.786;2023-05-10T03:16:37;28.27;;;13.07;;
21038;SDS011;10678;51.002;4.786;2023-05-10T03:19:15;30.40;;;13.40;;
21038;SDS011;10678;51.002;4.786;2023-05-10T03:21:46;24.80;;;12.07;;
21038;SDS011;10678;51.002;4.786;2023-05-10T03:24:15;27.42;;;12.70;;
21038;SDS011;10678;51.002;4.786;2023-05-10T03:26:44;22.63;;;11.90;;
21038;SDS011;10678;51.002;4.786;2023-05-10T03:29:11;25.05;;;12.77;;
21038;SDS011;10678;51.002;4.786;2023-05-10T03:31:39;35.80;;;12.88;;
21038;SDS011;10678;51.002;4.786;2023-05-10T03:34:05;27.33;;;12.98;;
21038;SDS011;10678;51.002;4.786;2023-05-10T03:36:31;26.38;;;13.55;;
21038;SDS011;10678;51.002;4.786;2023-05-10T03:38:57;26.27;;;13.20;;
21038;SDS011;10678;51.002;4.786;2023-05-10T03:41:23;29.02;;;13.00;;
21038;SDS011;10678;51.002;4.786;2023-05-10T03:43:50;27.00;;;13.25;;
21038;SDS011;10678;51.002;4.786;2023-05-10T03:46:15;31.35;;;13.32;;
21038;SDS011;10678;51.002;4.786;2023-05-10T03:48:41;30.67;;;14.20;;
21038;SDS011;10678;51.002;4.786;2023-05-10T03:51:07;31.70;;;14.88;;
21038;SDS011;10678;51.002;4.786;2023-05-10T03:53:33;26.23;;;13.75;;
21038;SDS011;10678;51.002;4.786;2023-05-10T03:55:58;26.38;;;15.40;;
21038;SDS011;10678;51.002;4.786;2023-05-10T03:58:24;32.90;;;15.63;;
21038;SDS011;10678;51.002;4.786;2023-05-10T04:00:50;32.75;;;15.48;;
21038;SDS011;10678;51.002;4.786;2023-05-10T04:03:16;28.65;;;15.55;;
21038;SDS011;10678;51.002;4.786;2023-05-10T04:05:42;28.50;;;14.98;;
21038;SDS011;10678;51.002;4.786;2023-05-10T04:08:08;32.00;;;16.40;;
21038;SDS011;10678;51.002;4.786;2023-05-10T04:10:34;33.28;;;16.10;;
21038;SDS011;10678;51.002;4.786;2023-05-10T04:12:59;33.55;;;15.60;;
21038;SDS011;10678;51.002;4.786;2023-05-10T04:15:25;28.08;;;15.50;;
21038;SDS011;10678;51.002;4.786;2023-05-10T04:17:51;28.08;;;14.85;;
21038;SDS011;10678;51.002;4.786;2023-05-10T04:20:17;32.38;;;16.90;;
21038;SDS011;10678;51.002;4.786;2023-05-10T04:22:42;32.67;;;16.58;;
21038;SDS011;10678;51.002;4.786;2023-05-10T04:25:08;30.77;;;15.65;;
21038;SDS011;10678;51.002;4.786;2023-05-10T04:27:34;34.92;;;16.60;;
21038;SDS011;10678;51.002;4.786;2023-05-10T04:29:59;31.30;;;16.90;;
21038;SDS011;10678;51.002;4.786;2023-05-10T04:32:25;33.13;;;18.88;;
21038;SDS011;10678;51.002;4.786;2023-05-10T04:34:51;37.47;;;17.80;;
21038;SDS011;10678;51.002;4.786;2023-05-10T04:37:16;33.40;;;17.38;;
21038;SDS011;10678;51.002;4.786;2023-05-10T04:39:42;32.63;;;17.52;;
21038;SDS011;10678;51.002;4.786;2023-05-10T04:42:08;39.83;;;19.10;;
21038;SDS011;10678;51.002;4.786;2023-05-10T04:44:35;31.92;;;17.65;;
21038;SDS011;10678;51.002;4.786;2023-05-10T04:47:01;35.65;;;19.23;;
21038;SDS011;10678;51.002;4.786;2023-05-10T04:49:28;30.92;;;16.83;;
21038;SDS011;10678;51.002;4.786;2023-05-10T04:51:54;36.42;;;18.27;;
21038;SDS011;10678;51.002;4.786;2023-05-10T04:54:20;34.90;;;19.67;;
21038;SDS011;10678;51.002;4.786;2023-05-10T04:56:45;36.05;;;18.83;;
21038;SDS011;10678;51.002;4.786;2023-05-10T04:59:11;35.45;;;18.25;;
21038;SDS011;10678;51.002;4.786;2023-05-10T05:01:37;40.72;;;20.42;;
21038;SDS011;10678;51.002;4.786;2023-05-10T05:04:02;37.70;;;19.55;;
21038;SDS011;10678;51.002;4.786;2023-05-10T05:06:28;48.13;;;20.38;;
21038;SDS011;10678;51.002;4.786;2023-05-10T05:08:54;44.92;;;23.17;;
21038;SDS011;10678;51.002;4.786;2023-05-10T05:11:19;48.15;;;21.65;;
21038;SDS011;10678;51.002;4.786;2023-05-10T05:13:46;42.22;;;22.08;;
21038;SDS011;10678;51.002;4.786;2023-05-10T05:16:11;43.92;;;21.85;;
21038;SDS011;10678;51.002;4.786;2023-05-10T05:18:37;48.10;;;23.48;;
21038;SDS011;10678;51.002;4.786;2023-05-10T05:21:03;46.75;;;23.20;;
21038;SDS011;10678;51.002;4.786;2023-05-10T05:23:40;49.00;;;24.35;;
21038;SDS011;10678;51.002;4.786;2023-05-10T05:26:05;45.35;;;22.58;;
21038;SDS011;10678;51.002;4.786;2023-05-10T05:28:31;47.33;;;23.45;;
21038;SDS011;10678;51.002;4.786;2023-05-10T05:30:58;46.25;;;23.23;;
21038;SDS011;10678;51.002;4.786;2023-05-10T05:33:24;46.03;;;23.35;;
21038;SDS011;10678;51.002;4.786;2023-05-10T05:35:50;48.35;;;24.65;;
21038;SDS011;10678;51.002;4.786;2023-05-10T05:38:17;46.85;;;23.83;;
21038;SDS011;10678;51.002;4.786;2023-05-10T05:40:43;54.03;;;24.00;;
21038;SDS011;10678;51.002;4.786;2023-05-10T05:43:08;46.25;;;23.17;;
21038;SDS011;10678;51.002;4.786;2023-05-10T05:45:34;47.78;;;25.17;;
21038;SDS011;10678;51.002;4.786;2023-05-10T05:47:59;50.75;;;24.23;;
21038;SDS011;10678;51.002;4.786;2023-05-10T05:50:25;45.40;;;23.42;;
21038;SDS011;10678;51.002;4.786;2023-05-10T05:52:51;49.72;;;25.20;;
21038;SDS011;10678;51.002;4.786;2023-05-10T05:55:16;51.40;;;24.17;;
21038;SDS011;10678;51.002;4.786;2023-05-10T05:57:42;50.17;;;25.65;;
21038;SDS011;10678;51.002;4.786;2023-05-10T06:00:08;50.88;;;25.10;;
21038;SDS011;10678;51.002;4.786;2023-05-10T06:02:34;50.78;;;24.08;;
21038;SDS011;10678;51.002;4.786;2023-05-10T06:04:59;47.65;;;25.23;;
21038;SDS011;10678;51.002;4.786;2023-05-10T06:07:25;49.00;;;24.58;;
21038;SDS011;10678;51.002;4.786;2023-05-10T06:09:51;43.92;;;24.27;;
21038;SDS011;10678;51.002;4.786;2023-05-10T06:12:16;45.45;;;23.65;;
21038;SDS011;10678;51.002;4.786;2023-05-10T06:14:42;47.95;;;24.50;;
21038;SDS011;10678;51.002;4.786;2023-05-10T06:17:07;40.60;;;22.17;;
21038;SDS011;10678;51.002;4.786;2023-05-10T06:19:33;44.42;;;23.38;;
21038;SDS011;10678;51.002;4.786;2023-05-10T06:21:59;41.40;;;23.48;;
21038;SDS011;10678;51.002;4.786;2023-05-10T06:24:24;40.38;;;21.48;;
21038;SDS011;10678;51.002;4.786;2023-05-10T06:26:50;41.63;;;20.92;;
21038;SDS011;10678;51.002;4.786;2023-05-10T06:29:16;35.90;;;20.88;;
21038;SDS011;10678;51.002;4.786;2023-05-10T06:31:41;35.20;;;18.40;;
21038;SDS011;10678;51.002;4.786;2023-05-10T06:34:07;33.65;;;19.80;;
21038;SDS011;10678;51.002;4.786;2023-05-10T06:36:33;32.33;;;19.10;;
21038;SDS011;10678;51.002;4.786;2023-05-10T06:38:59;33.83;;;18.90;;
21038;SDS011;10678;51.002;4.786;2023-05-10T06:41:24;33.50;;;18.63;;
21038;SDS011;10678;51.002;4.786;2023-05-10T06:43:50;31.77;;;19.13;;
21038;SDS011;10678;51.002;4.786;2023-05-10T06:46:15;30.48;;;18.10;;
21038;SDS011;10678;51.002;4.786;2023-05-10T06:48:41;33.25;;;17.13;;
21038;SDS011;10678;51.002;4.786;2023-05-10T06:51:07;31.83;;;17.42;;
21038;SDS011;10678;51.002;4.786;2023-05-10T06:53:32;32.42;;;16.90;;
21038;SDS011;10678;51.002;4.786;2023-05-10T06:55:58;31.13;;;17.35;;
21038;SDS011;10678;51.002;4.786;2023-05-10T06:58:24;33.10;;;18.33;;
21038;SDS011;10678;51.002;4.786;2023-05-10T07:00:49;28.27;;;17.13;;
21038;SDS011;10678;51.002;4.786;2023-05-10T07:03:15;28.25;;;16.33;;
21038;SDS011;10678;51.002;4.786;2023-05-10T07:05:41;31.65;;;16.23;;
21038;SDS011;10678;51.002;4.786;2023-05-10T07:08:07;29.33;;;17.08;;
21038;SDS011;10678;51.002;4.786;2023-05-10T07:10:33;28.45;;;16.58;;
21038;SDS011;10678;51.002;4.786;2023-05-10T07:12:59;26.92;;;17.45;;
21038;SDS011;10678;51.002;4.786;2023-05-10T07:15:26;26.63;;;15.77;;
21038;SDS011;10678;51.002;4.786;2023-05-10T07:17:51;27.48;;;16.60;;
21038;SDS011;10678;51.002;4.786;2023-05-10T07:20:17;32.67;;;17.40;;
21038;SDS011;10678;51.002;4.786;2023-05-10T07:22:43;26.83;;;16.83;;
21038;SDS011;10678;51.002;4.786;2023-05-10T07:25:08;28.48;;;17.42;;
21038;SDS011;10678;51.002;4.786;2023-05-10T07:27:34;30.98;;;16.42;;
21038;SDS011;10678;51.002;4.786;2023-05-10T07:30:00;26.33;;;15.82;;
21038;SDS011;10678;51.002;4.786;2023-05-10T07:32:26;26.13;;;16.02;;
21038;SDS011;10678;51.002;4.786;2023-05-10T07:34:52;30.50;;;15.85;;
21038;SDS011;10678;51.002;4.786;2023-05-10T07:37:17;26.10;;;15.10;;
21038;SDS011;10678;51.002;4.786;2023-05-10T07:39:43;24.98;;;15.93;;
21038;SDS011;10678;51.002;4.786;2023-05-10T07:42:09;27.33;;;15.38;;
21038;SDS011;10678;51.002;4.786;2023-05-10T07:44:34;24.20;;;14.25;;
21038;SDS011;10678;51.002;4.786;2023-05-10T07:47:00;25.70;;;15.45;;
21038;SDS011;10678;51.002;4.786;2023-05-10T07:49:25;25.20;;;16.35;;
21038;SDS011;10678;51.002;4.786;2023-05-10T07:51:51;29.17;;;15.40;;
21038;SDS011;10678;51.002;4.786;2023-05-10T07:54:17;21.98;;;15.20;;
21038;SDS011;10678;51.002;4.786;2023-05-10T07:56:42;26.20;;;14.80;;
21038;SDS011;10678;51.002;4.786;2023-05-10T07:59:15;29.58;;;15.05;;
21038;SDS011;10678;51.002;4.786;2023-05-10T08:01:42;27.23;;;14.73;;
21038;SDS011;10678;51.002;4.786;2023-05-10T08:04:07;27.60;;;14.68;;
21038;SDS011;10678;51.002;4.786;2023-05-10T08:06:33;28.50;;;17.10;;
21038;SDS011;10678;51.002;4.786;2023-05-10T08:08:59;33.78;;;20.27;;
21038;SDS011;10678;51.002;4.786;2023-05-10T08:11:25;55.63;;;45.85;;
21038;SDS011;10678;51.002;4.786;2023-05-10T08:13:52;32.13;;;18.90;;
21038;SDS011;10678;51.002;4.786;2023-05-10T08:16:18;27.65;;;17.25;;
21038;SDS011;10678;51.002;4.786;2023-05-10T08:18:44;33.15;;;20.02;;
21038;SDS011;10678;51.002;4.786;2023-05-10T08:21:11;23.83;;;14.73;;
21038;SDS011;10678;51.002;4.786;2023-05-10T08:23:38;163.93;;;119.72;;
21038;SDS011;10678;51.002;4.786;2023-05-10T08:26:04;24.38;;;14.20;;
21038;SDS011;10678;51.002;4.786;2023-05-10T08:28:30;21.00;;;11.13;;
21038;SDS011;10678;51.002;4.786;2023-05-10T08:30:56;20.02;;;9.70;;
21038;SDS011;10678;51.002;4.786;2023-05-10T08:33:21;24.23;;;10.70;;
21038;SDS011;10678;51.002;4.786;2023-05-10T08:35:47;23.23;;;11.48;;
21038;SDS011;10678;51.002;4.786;2023-05-10T08:38:13;20.10;;;9.00;;
21038;SDS011;10678;51.002;4.786;2023-05-10T08:40:42;18.05;;;9.57;;
21038;SDS011;10678;51.002;4.786;2023-05-10T08:43:12;16.10;;;9.23;;
21038;SDS011;10678;51.002;4.786;2023-05-10T08:45:41;22.23;;;10.50;;
21038;SDS011;10678;51.002;4.786;2023-05-10T08:48:09;21.00;;;9.98;;
21038;SDS011;10678;51.002;4.786;2023-05-10T08:50:35;20.08;;;9.98;;
21038;SDS011;10678;51.002;4.786;2023-05-10T08:53:04;20.17;;;10.38;;
21038;SDS011;10678;51.002;4.786;2023-05-10T08:55:32;22.77;;;10.45;;
21038;SDS011;10678;51.002;4.786;2023-05-10T08:57:59;23.85;;;11.25;;
21038;SDS011;10678;51.002;4.786;2023-05-10T09:00:25;19.40;;;11.70;;
21038;SDS011;10678;51.002;4.786;2023-05-10T09:02:51;22.40;;;11.38;;
21038;SDS011;10678;51.002;4.786;2023-05-10T09:05:17;21.02;;;10.00;;
21038;SDS011;10678;51.002;4.786;2023-05-10T09:07:43;20.02;;;10.38;;
21038;SDS011;10678;51.002;4.786;2023-05-10T09:10:09;20.05;;;10.25;;
21038;SDS011;10678;51.002;4.786;2023-05-10T09:12:36;22.90;;;10.13;;
21038;SDS011;10678;51.002;4.786;2023-05-10T09:15:03;22.40;;;9.43;;
21038;SDS011;10678;51.002;4.786;2023-05-10T09:17:30;18.80;;;8.88;;
21038;SDS011;10678;51.002;4.786;2023-05-10T09:19:57;16.48;;;8.55;;
21038;SDS011;10678;51.002;4.786;2023-05-10T09:22:24;16.33;;;8.73;;
21038;SDS011;10678;51.002;4.786;2023-05-10T09:27:35;15.38;;;8.88;;
21038;SDS011;10678;51.002;4.786;2023-05-10T09:30:01;14.82;;;8.20;;
21038;SDS011;10678;51.002;4.786;2023-05-10T09:32:38;14.77;;;8.50;;
21038;SDS011;10678;51.002;4.786;2023-05-10T09:35:11;14.52;;;8.23;;
21038;SDS011;10678;51.002;4.786;2023-05-10T09:37:39;18.13;;;6.82;;
21038;SDS011;10678;51.002;4.786;2023-05-10T09:40:21;15.02;;;8.02;;
21038;SDS011;10678;51.002;4.786;2023-05-10T09:45:30;15.45;;;8.43;;
21038;SDS011;10678;51.002;4.786;2023-05-10T09:47:57;13.88;;;8.30;;
21038;SDS011;10678;51.002;4.786;2023-05-10T09:50:25;15.55;;;8.18;;
21038;SDS011;10678;51.002;4.786;2023-05-10T09:52:55;15.20;;;8.65;;
21038;SDS011;10678;51.002;4.786;2023-05-10T09:55:44;14.07;;;8.07;;
21038;SDS011;10678;51.002;4.786;2023-05-10T09:58:11;14.32;;;8.05;;
21038;SDS011;10678;51.002;4.786;2023-05-10T10:00:42;13.18;;;7.35;;
21038;SDS011;10678;51.002;4.786;2023-05-10T10:03:16;16.05;;;7.88;;
21038;SDS011;10678;51.002;4.786;2023-05-10T10:05:43;12.13;;;7.60;;
21038;SDS011;10678;51.002;4.786;2023-05-10T10:08:11;16.02;;;8.35;;
21038;SDS011;10678;51.002;4.786;2023-05-10T10:10:37;15.07;;;7.07;;
21038;SDS011;10678;51.002;4.786;2023-05-10T10:13:05;12.73;;;6.50;;
21038;SDS011;10678;51.002;4.786;2023-05-10T10:15:32;13.40;;;7.45;;
21038;SDS011;10678;51.002;4.786;2023-05-10T10:18:01;16.38;;;7.90;;
21038;SDS011;10678;51.002;4.786;2023-05-10T10:20:29;16.27;;;7.85;;
21038;SDS011;10678;51.002;4.786;2023-05-10T10:22:55;12.45;;;6.15;;
21038;SDS011;10678;51.002;4.786;2023-05-10T10:25:21;11.68;;;6.88;;
21038;SDS011;10678;51.002;4.786;2023-05-10T10:35:53;13.45;;;6.45;;
21038;SDS011;10678;51.002;4.786;2023-05-10T10:38:20;10.50;;;5.82;;
21038;SDS011;10678;51.002;4.786;2023-05-10T10:40:46;14.98;;;5.97;;
21038;SDS011;10678;51.002;4.786;2023-05-10T10:43:22;11.43;;;5.95;;
21038;SDS011;10678;51.002;4.786;2023-05-10T10:49:09;11.98;;;5.97;;
21038;SDS011;10678;51.002;4.786;2023-05-10T10:51:38;14.70;;;7.13;;
21038;SDS011;10678;51.002;4.786;2023-05-10T10:54:10;10.13;;;5.43;;
21038;SDS011;10678;51.002;4.786;2023-05-10T10:56:36;9.95;;;5.47;;
21038;SDS011;10678;51.002;4.786;2023-05-10T10:59:02;7.80;;;4.85;;
21038;SDS011;10678;51.002;4.786;2023-05-10T11:01:32;13.55;;;5.20;;
21038;SDS011;10678;51.002;4.786;2023-05-10T11:08:57;12.95;;;4.75;;
21038;SDS011;10678;51.002;4.786;2023-05-10T11:11:24;9.75;;;4.55;;
21038;SDS011;10678;51.002;4.786;2023-05-10T11:13:49;9.43;;;5.07;;
21038;SDS011;10678;51.002;4.786;2023-05-10T11:19:06;7.57;;;4.38;;
21038;SDS011;10678;51.002;4.786;2023-05-10T11:21:34;11.50;;;5.03;;
21038;SDS011;10678;51.002;4.786;2023-05-10T11:24:15;10.65;;;4.97;;
21038;SDS011;10678;51.002;4.786;2023-05-10T11:26:42;10.40;;;4.50;;
21038;SDS011;10678;51.002;4.786;2023-05-10T11:29:08;9.38;;;4.47;;
21038;SDS011;10678;51.002;4.786;2023-05-10T11:31:34;11.40;;;4.65;;
21038;SDS011;10678;51.002;4.786;2023-05-10T11:34:00;9.43;;;4.60;;
21038;SDS011;10678;51.002;4.786;2023-05-10T11:36:31;11.55;;;6.20;;
21038;SDS011;10678;51.002;4.786;2023-05-10T11:38:58;10.02;;;5.20;;
21038;SDS011;10678;51.002;4.786;2023-05-10T11:41:24;9.60;;;5.28;;
21038;SDS011;10678;51.002;4.786;2023-05-10T11:43:53;13.02;;;4.65;;
21038;SDS011;10678;51.002;4.786;2023-05-10T11:46:20;7.90;;;4.32;;
21038;SDS011;10678;51.002;4.786;2023-05-10T11:48:53;9.82;;;3.88;;
21038;SDS011;10678;51.002;4.786;2023-05-10T11:51:25;7.28;;;4.13;;
21038;SDS011;10678;51.002;4.786;2023-05-10T11:53:55;6.93;;;3.63;;
21038;SDS011;10678;51.002;4.786;2023-05-10T11:56:21;12.07;;;3.80;;
21038;SDS011;10678;51.002;4.786;2023-05-10T11:58:54;12.07;;;3.83;;
21038;SDS011;10678;51.002;4.786;2023-05-10T12:01:22;6.20;;;3.35;;
21038;SDS011;10678;51.002;4.786;2023-05-10T12:03:50;6.43;;;3.53;;
21038;SDS011;10678;51.002;4.786;2023-05-10T12:06:18;8.07;;;3.78;;
21038;SDS011;10678;51.002;4.786;2023-05-10T12:08:45;7.55;;;3.58;;
21038;SDS011;10678;51.002;4.786;2023-05-10T12:11:13;9.18;;;3.28;;
21038;SDS011;10678;51.002;4.786;2023-05-10T12:13:40;9.00;;;3.15;;
21038;SDS011;10678;51.002;4.786;2023-05-10T12:16:20;8.63;;;3.55;;
21038;SDS011;10678;51.002;4.786;2023-05-10T12:18:49;7.43;;;3.47;;
21038;SDS011;10678;51.002;4.786;2023-05-10T12:21:16;10.40;;;3.13;;
21038;SDS011;10678;51.002;4.786;2023-05-10T12:23:41;6.95;;;2.90;;
21038;SDS011;10678;51.002;4.786;2023-05-10T12:26:09;9.38;;;3.55;;
21038;SDS011;10678;51.002;4.786;2023-05-10T12:28:36;6.55;;;3.33;;
21038;SDS011;10678;51.002;4.786;2023-05-10T12:31:02;6.82;;;2.60;;
21038;SDS011;10678;51.002;4.786;2023-05-10T12:33:35;4.65;;;2.08;;
21038;SDS011;10678;51.002;4.786;2023-05-10T12:36:08;4.28;;;2.10;;
21038;SDS011;10678;51.002;4.786;2023-05-10T12:41:03;7.28;;;2.88;;
21038;SDS011;10678;51.002;4.786;2023-05-10T12:43:31;8.50;;;2.53;;
21038;SDS011;10678;51.002;4.786;2023-05-10T12:45:57;5.93;;;2.95;;
21038;SDS011;10678;51.002;4.786;2023-05-10T12:48:23;5.55;;;2.65;;
21038;SDS011;10678;51.002;4.786;2023-05-10T12:50:49;7.22;;;2.83;;
21038;SDS011;10678;51.002;4.786;2023-05-10T12:53:14;8.38;;;2.85;;
21038;SDS011;10678;51.002;4.786;2023-05-10T12:55:41;5.65;;;2.80;;
21038;SDS011;10678;51.002;4.786;2023-05-10T12:58:07;5.88;;;3.13;;
21038;SDS011;10678;51.002;4.786;2023-05-10T13:00:33;9.85;;;2.65;;
21038;SDS011;10678;51.002;4.786;2023-05-10T13:02:58;7.13;;;3.05;;
21038;SDS011;10678;51.002;4.786;2023-05-10T13:05:24;5.93;;;2.83;;
21038;SDS011;10678;51.002;4.786;2023-05-10T13:07:50;6.10;;;2.90;;
21038;SDS011;10678;51.002;4.786;2023-05-10T13:10:15;8.70;;;3.15;;
21038;SDS011;10678;51.002;4.786;2023-05-10T13:12:41;5.85;;;2.78;;
21038;SDS011;10678;51.002;4.786;2023-05-10T13:15:07;5.07;;;2.30;;
21038;SDS011;10678;51.002;4.786;2023-05-10T13:17:33;6.50;;;2.47;;
21038;SDS011;10678;51.002;4.786;2023-05-10T13:19:58;7.20;;;2.38;;
21038;SDS011;10678;51.002;4.786;2023-05-10T13:22:24;6.13;;;2.53;;
21038;SDS011;10678;51.002;4.786;2023-05-10T13:24:50;7.72;;;2.70;;
21038;SDS011;10678;51.002;4.786;2023-05-10T13:27:15;11.20;;;3.85;;
21038;SDS011;10678;51.002;4.786;2023-05-10T13:29:41;6.72;;;2.92;;
21038;SDS011;10678;51.002;4.786;2023-05-10T13:32:07;6.82;;;3.13;;
21038;SDS011;10678;51.002;4.786;2023-05-10T13:34:32;9.98;;;2.95;;
21038;SDS011;10678;51.002;4.786;2023-05-10T13:36:58;8.63;;;2.75;;
21038;SDS011;10678;51.002;4.786;2023-05-10T13:39:24;7.35;;;2.67;;
21038;SDS011;10678;51.002;4.786;2023-05-10T13:41:49;7.18;;;2.70;;
21038;SDS011;10678;51.002;4.786;2023-05-10T13:44:15;6.20;;;2.67;;
21038;SDS011;10678;51.002;4.786;2023-05-10T13:46:41;6.20;;;2.70;;
21038;SDS011;10678;51.002;4.786;2023-05-10T13:49:10;8.13;;;3.10;;
21038;SDS011;10678;51.002;4.786;2023-05-10T13:51:35;6.05;;;3.13;;
21038;SDS011;10678;51.002;4.786;2023-05-10T13:54:04;9.07;;;2.90;;
21038;SDS011;10678;51.002;4.786;2023-05-10T13:56:29;5.90;;;2.78;;
21038;SDS011;10678;51.002;4.786;2023-05-10T13:58:58;4.82;;;2.83;;
21038;SDS011;10678;51.002;4.786;2023-05-10T14:01:24;7.28;;;2.72;;
21038;SDS011;10678;51.002;4.786;2023-05-10T14:03:50;8.02;;;3.22;;
21038;SDS011;10678;51.002;4.786;2023-05-10T14:06:15;6.47;;;3.08;;
21038;SDS011;10678;51.002;4.786;2023-05-10T14:08:42;7.38;;;2.80;;
21038;SDS011;10678;51.002;4.786;2023-05-10T14:11:07;5.85;;;2.88;;
21038;SDS011;10678;51.002;4.786;2023-05-10T14:13:34;6.03;;;3.05;;
21038;SDS011;10678;51.002;4.786;2023-05-10T14:16:00;9.95;;;3.50;;
21038;SDS011;10678;51.002;4.786;2023-05-10T14:18:28;8.20;;;3.83;;
21038;SDS011;10678;51.002;4.786;2023-05-10T14:20:54;9.77;;;4.38;;
21038;SDS011;10678;51.002;4.786;2023-05-10T14:23:21;11.63;;;4.40;;
21038;SDS011;10678;51.002;4.786;2023-05-10T14:25:49;11.35;;;4.18;;
21038;SDS011;10678;51.002;4.786;2023-05-10T14:28:16;9.45;;;4.70;;
21038;SDS011;10678;51.002;4.786;2023-05-10T14:30:43;10.18;;;4.35;;
21038;SDS011;10678;51.002;4.786;2023-05-10T14:33:09;9.85;;;4.03;;
21038;SDS011;10678;51.002;4.786;2023-05-10T14:35:35;8.43;;;4.03;;
21038;SDS011;10678;51.002;4.786;2023-05-10T14:38:01;8.95;;;3.90;;
21038;SDS011;10678;51.002;4.786;2023-05-10T14:40:28;7.45;;;3.25;;
21038;SDS011;10678;51.002;4.786;2023-05-10T14:42:54;8.20;;;4.13;;
21038;SDS011;10678;51.002;4.786;2023-05-10T14:45:20;7.65;;;3.60;;
21038;SDS011;10678;51.002;4.786;2023-05-10T14:47:46;6.05;;;2.97;;
21038;SDS011;10678;51.002;4.786;2023-05-10T14:50:12;18.27;;;4.55;;
21038;SDS011;10678;51.002;4.786;2023-05-10T14:52:37;4.82;;;2.97;;
21038;SDS011;10678;51.002;4.786;2023-05-10T14:55:03;6.72;;;3.28;;
21038;SDS011;10678;51.002;4.786;2023-05-10T14:57:29;7.07;;;3.65;;
21038;SDS011;10678;51.002;4.786;2023-05-10T14:59:55;10.13;;;3.38;;
21038;SDS011;10678;51.002;4.786;2023-05-10T15:02:21;8.00;;;3.42;;
21038;SDS011;10678;51.002;4.786;2023-05-10T15:04:47;10.48;;;3.92;;
21038;SDS011;10678;51.002;4.786;2023-05-10T15:07:12;8.57;;;4.88;;
21038;SDS011;10678;51.002;4.786;2023-05-10T15:09:40;10.60;;;4.78;;
21038;SDS011;10678;51.002;4.786;2023-05-10T15:12:06;9.00;;;4.32;;
21038;SDS011;10678;51.002;4.786;2023-05-10T15:14:31;9.75;;;4.45;;